sensor_id;sensor_type;location;lat;lon;timestamp;pressure;altitude;pressure_sealevel;temperature;humidity
63927;BME280;50103;47.960;21.712;2023-02-03T06:03:36;100997.39;;;0.69;74.57
63927;BME280;50103;47.960;21.712;2023-02-03T06:06:03;101000.20;;;0.68;74.72
63927;BME280;50103;47.960;21.712;2023-02-03T06:08:28;101006.30;;;0.68;74.74
63927;BME280;50103;47.960;21.712;2023-02-03T06:11:07;101019.20;;;0.68;74.55
63927;BME280;50103;47.960;21.712;2023-02-03T06:13:33;101021.95;;;0.69;74.40
63927;BME280;50103;47.960;21.712;2023-02-03T06:15:59;101025.67;;;0.67;74.33
63927;BME280;50103;47.960;21.712;2023-02-03T06:18:25;101029.36;;;0.65;74.33
63927;BME280;50103;47.960;21.712;2023-02-03T06:20:51;101031.35;;;0.64;74.22
63927;BME280;50103;47.960;21.712;2023-02-03T06:23:17;101033.33;;;0.62;74.28
63927;BME280;50103;47.960;21.712;2023-02-03T06:25:44;101035.44;;;0.60;74.20
63927;BME280;50103;47.960;21.712;2023-02-03T06:28:13;101034.91;;;0.61;74.32
63927;BME280;50103;47.960;21.712;2023-02-03T06:30:39;101028.81;;;0.61;74.56
63927;BME280;50103;47.960;21.712;2023-02-03T06:33:05;101028.92;;;0.63;74.62
63927;BME280;50103;47.960;21.712;2023-02-03T06:35:33;101024.69;;;0.65;74.64
63927;BME280;50103;47.960;21.712;2023-02-03T06:37:59;101018.41;;;0.65;74.50
63927;BME280;50103;47.960;21.712;2023-02-03T06:40:25;101018.36;;;0.66;74.80
63927;BME280;50103;47.960;21.712;2023-02-03T06:42:51;101024.12;;;0.66;74.57
63927;BME280;50103;47.960;21.712;2023-02-03T06:45:21;101026.20;;;0.66;74.63
63927;BME280;50103;47.960;21.712;2023-02-03T06:47:49;101030.05;;;0.66;74.79
63927;BME280;50103;47.960;21.712;2023-02-03T06:50:15;101035.16;;;0.64;74.94
63927;BME280;50103;47.960;21.712;2023-02-03T06:52:40;101041.98;;;0.64;74.82
63927;BME280;50103;47.960;21.712;2023-02-03T06:55:07;101045.67;;;0.62;74.96
63927;BME280;50103;47.960;21.712;2023-02-03T06:57:42;101046.90;;;0.62;75.05
63927;BME280;50103;47.960;21.712;2023-02-03T07:00:09;101047.25;;;0.62;75.09
63927;BME280;50103;47.960;21.712;2023-02-03T07:02:35;101040.64;;;0.62;75.09
63927;BME280;50103;47.960;21.712;2023-02-03T07:05:01;101037.14;;;0.62;75.10
63927;BME280;50103;47.960;21.712;2023-02-03T07:07:27;101040.81;;;0.62;75.23
63927;BME280;50103;47.960;21.712;2023-02-03T07:10:00;101041.85;;;0.62;75.27
63927;BME280;50103;47.960;21.712;2023-02-03T07:12:30;101037.83;;;0.62;75.22
63927;BME280;50103;47.960;21.712;2023-02-03T07:14:56;101035.63;;;0.66;75.22
63927;BME280;50103;47.960;21.712;2023-02-03T07:17:22;101031.71;;;0.69;75.23
63927;BME280;50103;47.960;21.712;2023-02-03T07:19:48;101033.20;;;0.74;75.18
63927;BME280;50103;47.960;21.712;2023-02-03T07:22:14;101027.16;;;0.78;75.27
63927;BME280;50103;47.960;21.712;2023-02-03T07:24:40;101020.56;;;0.83;75.19
63927;BME280;50103;47.960;21.712;2023-02-03T07:27:06;101018.52;;;0.88;75.16
63927;BME280;50103;47.960;21.712;2023-02-03T07:29:37;101010.17;;;0.94;75.21
63927;BME280;50103;47.960;21.712;2023-02-03T07:32:03;101006.16;;;1.00;75.00
63927;BME280;50103;47.960;21.712;2023-02-03T07:34:29;101000.25;;;1.07;74.76
63927;BME280;50103;47.960;21.712;2023-02-03T07:36:56;101002.51;;;1.13;74.95
63927;BME280;50103;47.960;21.712;2023-02-03T07:39:22;101004.61;;;1.19;74.58
63927;BME280;50103;47.960;21.712;2023-02-03T07:41:51;100995.94;;;1.24;74.44
63927;BME280;50103;47.960;21.712;2023-02-03T07:44:17;100991.95;;;1.29;74.21
63927;BME280;50103;47.960;21.712;2023-02-03T07:46:44;100989.56;;;1.33;74.10
63927;BME280;50103;47.960;21.712;2023-02-03T07:49:15;100991.16;;;1.38;74.07
63927;BME280;50103;47.960;21.712;2023-02-03T07:51:43;100986.98;;;1.45;74.18
63927;BME280;50103;47.960;21.712;2023-02-03T07:54:10;100978.77;;;1.51;74.21
63927;BME280;50103;47.960;21.712;2023-02-03T07:56:36;100977.67;;;1.58;74.01
63927;BME280;50103;47.960;21.712;2023-02-03T07:59:02;100976.63;;;1.64;73.78
63927;BME280;50103;47.960;21.712;2023-02-03T08:01:28;100979.77;;;1.70;73.43
63927;BME280;50103;47.960;21.712;2023-02-03T08:03:59;100977.49;;;1.76;73.31
63927;BME280;50103;47.960;21.712;2023-02-03T08:06:26;100976.77;;;1.83;73.13
63927;BME280;50103;47.960;21.712;2023-02-03T08:08:55;100979.73;;;1.89;72.53
63927;BME280;50103;47.960;21.712;2023-02-03T08:11:25;100976.98;;;1.93;72.11
63927;BME280;50103;47.960;21.712;2023-02-03T08:14:00;100981.31;;;1.99;71.82
63927;BME280;50103;47.960;21.712;2023-02-03T08:16:25;100975.77;;;2.03;71.72
63927;BME280;50103;47.960;21.712;2023-02-03T08:18:52;100978.22;;;2.09;71.67
63927;BME280;50103;47.960;21.712;2023-02-03T08:21:21;100980.67;;;2.14;70.96
63927;BME280;50103;47.960;21.712;2023-02-03T08:23:58;100980.34;;;2.20;71.04
63927;BME280;50103;47.960;21.712;2023-02-03T08:26:28;100978.30;;;2.23;70.93
63927;BME280;50103;47.960;21.712;2023-02-03T08:28:54;100977.83;;;2.27;70.85
63927;BME280;50103;47.960;21.712;2023-02-03T08:31:20;100980.32;;;2.31;70.45
63927;BME280;50103;47.960;21.712;2023-02-03T08:33:47;100986.13;;;2.35;70.67
63927;BME280;50103;47.960;21.712;2023-02-03T08:36:13;100988.60;;;2.39;70.83
63927;BME280;50103;47.960;21.712;2023-02-03T08:38:45;100991.20;;;2.45;71.21
63927;BME280;50103;47.960;21.712;2023-02-03T08:41:13;100994.92;;;2.49;71.31
63927;BME280;50103;47.960;21.712;2023-02-03T08:43:40;101001.11;;;2.52;71.65
63927;BME280;50103;47.960;21.712;2023-02-03T08:46:10;101005.69;;;2.57;71.84
63927;BME280;50103;47.960;21.712;2023-02-03T08:48:42;101006.56;;;2.61;71.63
63927;BME280;50103;47.960;21.712;2023-02-03T08:51:13;101010.67;;;2.64;71.70
63927;BME280;50103;47.960;21.712;2023-02-03T08:53:39;101007.27;;;2.67;71.95
63927;BME280;50103;47.960;21.712;2023-02-03T08:56:07;101006.33;;;2.69;71.75
63927;BME280;50103;47.960;21.712;2023-02-03T08:58:35;101008.85;;;2.72;72.05
63927;BME280;50103;47.960;21.712;2023-02-03T09:01:12;101012.23;;;2.75;71.67
63927;BME280;50103;47.960;21.712;2023-02-03T09:03:38;101013.14;;;2.79;71.96
63927;BME280;50103;47.960;21.712;2023-02-03T09:06:14;101017.92;;;2.83;71.93
63927;BME280;50103;47.960;21.712;2023-02-03T09:08:44;101021.27;;;2.88;71.68
63927;BME280;50103;47.960;21.712;2023-02-03T09:11:16;101025.46;;;2.92;71.29
63927;BME280;50103;47.960;21.712;2023-02-03T09:13:45;101029.84;;;2.97;71.10
63927;BME280;50103;47.960;21.712;2023-02-03T09:16:16;101032.74;;;2.99;70.99
63927;BME280;50103;47.960;21.712;2023-02-03T09:18:43;101029.16;;;3.02;71.22
63927;BME280;50103;47.960;21.712;2023-02-03T09:21:11;101026.80;;;3.05;70.83
63927;BME280;50103;47.960;21.712;2023-02-03T09:23:39;101028.56;;;3.09;70.43
63927;BME280;50103;47.960;21.712;2023-02-03T09:26:08;101027.31;;;3.09;70.83
63927;BME280;50103;47.960;21.712;2023-02-03T09:28:34;101027.80;;;3.10;70.74
63927;BME280;50103;47.960;21.712;2023-02-03T09:31:12;101020.31;;;3.09;70.44
63927;BME280;50103;47.960;21.712;2023-02-03T09:33:55;101015.82;;;3.08;70.19
63927;BME280;50103;47.960;21.712;2023-02-03T09:36:26;101014.83;;;3.07;69.57
63927;BME280;50103;47.960;21.712;2023-02-03T09:38:52;101003.27;;;3.07;69.72
63927;BME280;50103;47.960;21.712;2023-02-03T09:47:40;100996.43;;;3.23;69.05
63927;BME280;50103;47.960;21.712;2023-02-03T09:50:13;100993.57;;;3.28;69.23
63927;BME280;50103;47.960;21.712;2023-02-03T09:52:45;100995.38;;;3.37;68.54
63927;BME280;50103;47.960;21.712;2023-02-03T09:55:25;100992.61;;;3.45;68.43
63927;BME280;50103;47.960;21.712;2023-02-03T09:58:12;100980.89;;;3.55;68.41
63927;BME280;50103;47.960;21.712;2023-02-03T10:00:43;100974.41;;;3.64;68.88
63927;BME280;50103;47.960;21.712;2023-02-03T10:03:31;100965.70;;;3.72;68.80
63927;BME280;50103;47.960;21.712;2023-02-03T10:17:30;100946.16;;;3.88;67.50
63927;BME280;50103;47.960;21.712;2023-02-03T10:22:54;100937.85;;;3.90;67.09
63927;BME280;50103;47.960;21.712;2023-02-03T10:25:36;100926.74;;;3.87;66.77
63927;BME280;50103;47.960;21.712;2023-02-03T10:28:09;100927.73;;;3.89;66.13
63927;BME280;50103;47.960;21.712;2023-02-03T10:31:01;100921.73;;;3.90;65.26
63927;BME280;50103;47.960;21.712;2023-02-03T10:33:31;100912.15;;;3.89;65.56
63927;BME280;50103;47.960;21.712;2023-02-03T10:36:22;100909.45;;;3.90;65.52
63927;BME280;50103;47.960;21.712;2023-02-03T10:39:10;100905.29;;;3.89;65.79
63927;BME280;50103;47.960;21.712;2023-02-03T10:41:41;100905.51;;;3.97;65.94
63927;BME280;50103;47.960;21.712;2023-02-03T10:44:10;100896.83;;;4.03;65.87
63927;BME280;50103;47.960;21.712;2023-02-03T10:46:42;100892.92;;;4.08;65.60
63927;BME280;50103;47.960;21.712;2023-02-03T10:49:11;100887.05;;;4.11;66.20
63927;BME280;50103;47.960;21.712;2023-02-03T10:51:43;100884.84;;;4.18;66.67
63927;BME280;50103;47.960;21.712;2023-02-03T10:54:32;100880.58;;;4.27;66.97
63927;BME280;50103;47.960;21.712;2023-02-03T10:57:03;100877.27;;;4.35;66.92
63927;BME280;50103;47.960;21.712;2023-02-03T10:59:34;100866.75;;;4.48;66.52
63927;BME280;50103;47.960;21.712;2023-02-03T11:02:07;100859.35;;;4.56;66.32
63927;BME280;50103;47.960;21.712;2023-02-03T11:04:33;100860.08;;;4.68;66.09
63927;BME280;50103;47.960;21.712;2023-02-03T11:07:05;100859.05;;;4.83;65.19
63927;BME280;50103;47.960;21.712;2023-02-03T11:09:35;100857.09;;;4.95;64.44
63927;BME280;50103;47.960;21.712;2023-02-03T11:12:18;100849.63;;;4.97;63.17
63927;BME280;50103;47.960;21.712;2023-02-03T11:14:50;100847.63;;;4.95;62.80
63927;BME280;50103;47.960;21.712;2023-02-03T11:17:19;100841.30;;;4.95;63.12
63927;BME280;50103;47.960;21.712;2023-02-03T11:19:49;100837.27;;;4.95;63.15
63927;BME280;50103;47.960;21.712;2023-02-03T11:22:42;100837.48;;;4.94;62.72
63927;BME280;50103;47.960;21.712;2023-02-03T11:25:35;100827.91;;;4.92;61.89
63927;BME280;50103;47.960;21.712;2023-02-03T11:28:05;100819.52;;;4.88;62.37
63927;BME280;50103;47.960;21.712;2023-02-03T11:30:32;100810.63;;;4.90;62.23
63927;BME280;50103;47.960;21.712;2023-02-03T11:33:00;100802.27;;;4.89;61.77
63927;BME280;50103;47.960;21.712;2023-02-03T11:35:32;100793.64;;;4.82;61.35
63927;BME280;50103;47.960;21.712;2023-02-03T11:38:02;100787.92;;;4.77;61.16
63927;BME280;50103;47.960;21.712;2023-02-03T11:40:30;100782.73;;;4.71;61.40
63927;BME280;50103;47.960;21.712;2023-02-03T11:43:00;100773.73;;;4.72;61.19
63927;BME280;50103;47.960;21.712;2023-02-03T11:45:29;100767.19;;;4.77;60.31
63927;BME280;50103;47.960;21.712;2023-02-03T11:48:06;100760.44;;;4.83;60.53
63927;BME280;50103;47.960;21.712;2023-02-03T12:07:49;100718.64;;;5.10;57.13
63927;BME280;50103;47.960;21.712;2023-02-03T12:11:16;100712.24;;;5.04;57.97
63927;BME280;50103;47.960;21.712;2023-02-03T12:13:59;100708.09;;;5.00;59.22
63927;BME280;50103;47.960;21.712;2023-02-03T12:22:45;100697.69;;;4.71;62.92
63927;BME280;50103;47.960;21.712;2023-02-03T12:30:38;100688.27;;;4.54;63.57
63927;BME280;50103;47.960;21.712;2023-02-03T12:33:16;100686.11;;;4.55;63.64
63927;BME280;50103;47.960;21.712;2023-02-03T12:35:53;100685.45;;;4.55;62.40
63927;BME280;50103;47.960;21.712;2023-02-03T12:40:59;100671.96;;;4.43;61.13
63927;BME280;50103;47.960;21.712;2023-02-03T12:43:42;100663.23;;;4.39;60.93
63927;BME280;50103;47.960;21.712;2023-02-03T12:51:34;100646.98;;;4.27;59.84
63927;BME280;50103;47.960;21.712;2023-02-03T12:54:24;100634.14;;;4.16;59.34
63927;BME280;50103;47.960;21.712;2023-02-03T12:56:59;100632.07;;;4.07;59.64
63927;BME280;50103;47.960;21.712;2023-02-03T12:59:30;100634.96;;;4.05;60.52
63927;BME280;50103;47.960;21.712;2023-02-03T13:02:02;100637.08;;;4.05;60.20
63927;BME280;50103;47.960;21.712;2023-02-03T13:04:41;100633.61;;;4.01;59.99
63927;BME280;50103;47.960;21.712;2023-02-03T13:07:48;100628.38;;;3.92;60.62
63927;BME280;50103;47.960;21.712;2023-02-03T13:10:32;100619.61;;;3.89;61.53
63927;BME280;50103;47.960;21.712;2023-02-03T13:13:02;100612.10;;;3.84;61.92
63927;BME280;50103;47.960;21.712;2023-02-03T13:15:36;100609.19;;;3.78;62.37
63927;BME280;50103;47.960;21.712;2023-02-03T13:18:37;100604.61;;;3.71;62.61
63927;BME280;50103;47.960;21.712;2023-02-03T13:21:04;100597.14;;;3.66;63.19
63927;BME280;50103;47.960;21.712;2023-02-03T13:23:30;100590.17;;;3.65;63.58
63927;BME280;50103;47.960;21.712;2023-02-03T13:26:15;100589.74;;;3.67;63.72
63927;BME280;50103;47.960;21.712;2023-02-03T13:29:04;100592.56;;;3.62;63.26
63927;BME280;50103;47.960;21.712;2023-02-03T13:31:39;100586.46;;;3.54;63.13
63927;BME280;50103;47.960;21.712;2023-02-03T13:34:20;100590.46;;;3.51;63.54
63927;BME280;50103;47.960;21.712;2023-02-03T13:37:02;100580.73;;;3.45;63.19
63927;BME280;50103;47.960;21.712;2023-02-03T13:39:52;100575.54;;;3.39;63.96
63927;BME280;50103;47.960;21.712;2023-02-03T13:42:29;100570.08;;;3.36;64.38
63927;BME280;50103;47.960;21.712;2023-02-03T13:47:33;100554.67;;;3.32;64.34
63927;BME280;50103;47.960;21.712;2023-02-03T13:50:04;100546.65;;;3.28;64.21
63927;BME280;50103;47.960;21.712;2023-02-03T13:55:39;100543.08;;;3.13;64.54
63927;BME280;50103;47.960;21.712;2023-02-03T13:58:21;100535.10;;;3.07;64.41
63927;BME280;50103;47.960;21.712;2023-02-03T14:03:55;100522.23;;;2.90;65.26
63927;BME280;50103;47.960;21.712;2023-02-03T14:09:40;100511.98;;;2.71;67.47
63927;BME280;50103;47.960;21.712;2023-02-03T14:12:32;100510.36;;;2.63;68.33
63927;BME280;50103;47.960;21.712;2023-02-03T14:15:01;100504.61;;;2.59;69.40
63927;BME280;50103;47.960;21.712;2023-02-03T14:20:37;100498.70;;;2.41;71.98
63927;BME280;50103;47.960;21.712;2023-02-03T14:25:29;100486.19;;;2.23;75.32
63927;BME280;50103;47.960;21.712;2023-02-03T14:27:59;100477.56;;;2.15;75.97
63927;BME280;50103;47.960;21.712;2023-02-03T14:30:33;100474.16;;;2.09;76.54
63927;BME280;50103;47.960;21.712;2023-02-03T14:33:15;100468.37;;;2.05;76.67
63927;BME280;50103;47.960;21.712;2023-02-03T14:35:42;100463.58;;;2.03;77.06
63927;BME280;50103;47.960;21.712;2023-02-03T14:38:13;100454.69;;;1.97;77.06
63927;BME280;50103;47.960;21.712;2023-02-03T14:41:03;100450.42;;;1.95;78.07
63927;BME280;50103;47.960;21.712;2023-02-03T14:44:29;100440.20;;;1.89;78.38
63927;BME280;50103;47.960;21.712;2023-02-03T14:53:03;100422.33;;;1.81;79.48
63927;BME280;50103;47.960;21.712;2023-02-03T14:56:06;100416.81;;;1.75;80.55
63927;BME280;50103;47.960;21.712;2023-02-03T14:58:47;100410.08;;;1.69;80.11
63927;BME280;50103;47.960;21.712;2023-02-03T15:04:19;100405.19;;;1.61;81.15
63927;BME280;50103;47.960;21.712;2023-02-03T15:06:48;100403.03;;;1.58;81.76
63927;BME280;50103;47.960;21.712;2023-02-03T15:09:46;100398.14;;;1.53;82.48
63927;BME280;50103;47.960;21.712;2023-02-03T15:12:34;100392.88;;;1.49;83.97
63927;BME280;50103;47.960;21.712;2023-02-03T15:15:24;100388.07;;;1.43;84.20
63927;BME280;50103;47.960;21.712;2023-02-03T15:17:55;100383.19;;;1.38;84.68
63927;BME280;50103;47.960;21.712;2023-02-03T15:20:37;100374.83;;;1.33;85.20
63927;BME280;50103;47.960;21.712;2023-02-03T15:23:24;100364.46;;;1.30;85.61
63927;BME280;50103;47.960;21.712;2023-02-03T15:26:02;100354.14;;;1.27;86.20
63927;BME280;50103;47.960;21.712;2023-02-03T15:28:29;100347.45;;;1.24;87.04
63927;BME280;50103;47.960;21.712;2023-02-03T15:31:15;100334.81;;;1.21;88.07
63927;BME280;50103;47.960;21.712;2023-02-03T15:33:44;100327.84;;;1.17;88.26
63927;BME280;50103;47.960;21.712;2023-02-03T15:36:18;100320.94;;;1.15;89.32
63927;BME280;50103;47.960;21.712;2023-02-03T15:38:49;100309.80;;;1.10;89.82
63927;BME280;50103;47.960;21.712;2023-02-03T15:41:22;100305.95;;;1.05;90.31
63927;BME280;50103;47.960;21.712;2023-02-03T15:43:52;100305.75;;;1.01;90.64
63927;BME280;50103;47.960;21.712;2023-02-03T15:46:32;100302.83;;;0.96;90.94
63927;BME280;50103;47.960;21.712;2023-02-03T15:49:13;100299.34;;;0.91;91.49
63927;BME280;50103;47.960;21.712;2023-02-03T15:51:57;100292.83;;;0.89;91.95
63927;BME280;50103;47.960;21.712;2023-02-03T15:54:33;100290.54;;;0.85;92.26
63927;BME280;50103;47.960;21.712;2023-02-03T15:57:22;100284.02;;;0.82;92.74
63927;BME280;50103;47.960;21.712;2023-02-03T16:00:31;100278.05;;;0.79;93.55
63927;BME280;50103;47.960;21.712;2023-02-03T16:02:59;100276.59;;;0.76;94.29
63927;BME280;50103;47.960;21.712;2023-02-03T16:05:30;100269.05;;;0.72;95.22
63927;BME280;50103;47.960;21.712;2023-02-03T16:11:19;100252.13;;;0.63;96.68
63927;BME280;50103;47.960;21.712;2023-02-03T16:13:48;100244.61;;;0.59;97.13
63927;BME280;50103;47.960;21.712;2023-02-03T16:16:32;100243.11;;;0.57;97.75
63927;BME280;50103;47.960;21.712;2023-02-03T16:19:04;100236.77;;;0.55;97.84
63927;BME280;50103;47.960;21.712;2023-02-03T16:21:53;100220.80;;;0.53;97.89
63927;BME280;50103;47.960;21.712;2023-02-03T16:24:41;100211.75;;;0.53;98.25
63927;BME280;50103;47.960;21.712;2023-02-03T16:27:31;100202.39;;;0.52;98.38
63927;BME280;50103;47.960;21.712;2023-02-03T16:33:15;100180.38;;;0.49;98.93
63927;BME280;50103;47.960;21.712;2023-02-03T16:36:09;100171.90;;;0.48;99.53
63927;BME280;50103;47.960;21.712;2023-02-03T16:38:54;100161.73;;;0.45;99.71
63927;BME280;50103;47.960;21.712;2023-02-03T16:41:38;100158.59;;;0.45;100.00
63927;BME280;50103;47.960;21.712;2023-02-03T16:44:23;100153.42;;;0.43;99.84
63927;BME280;50103;47.960;21.712;2023-02-03T16:47:25;100147.83;;;0.44;100.00
63927;BME280;50103;47.960;21.712;2023-02-03T16:50:18;100139.71;;;0.42;100.00
63927;BME280;50103;47.960;21.712;2023-02-03T16:53:04;100132.33;;;0.39;100.00
63927;BME280;50103;47.960;21.712;2023-02-03T16:55:30;100124.99;;;0.40;100.00
63927;BME280;50103;47.960;21.712;2023-02-03T16:57:55;100119.48;;;0.39;100.00
63927;BME280;50103;47.960;21.712;2023-02-03T17:00:21;100116.54;;;0.38;100.00
63927;BME280;50103;47.960;21.712;2023-02-03T17:02:49;100110.45;;;0.37;100.00
63927;BME280;50103;47.960;21.712;2023-02-03T17:05:15;100104.04;;;0.37;100.00
63927;BME280;50103;47.960;21.712;2023-02-03T17:07:41;100097.30;;;0.35;100.00
63927;BME280;50103;47.960;21.712;2023-02-03T17:10:08;100095.37;;;0.35;100.00
63927;BME280;50103;47.960;21.712;2023-02-03T17:12:35;100095.41;;;0.34;100.00
63927;BME280;50103;47.960;21.712;2023-02-03T17:15:07;100092.00;;;0.33;100.00
63927;BME280;50103;47.960;21.712;2023-02-03T17:17:33;100094.84;;;0.32;100.00
63927;BME280;50103;47.960;21.712;2023-02-03T17:19:59;100092.11;;;0.30;100.00
63927;BME280;50103;47.960;21.712;2023-02-03T17:22:25;100087.46;;;0.29;100.00
63927;BME280;50103;47.960;21.712;2023-02-03T17:24:52;100083.52;;;0.27;100.00
63927;BME280;50103;47.960;21.712;2023-02-03T17:27:18;100084.91;;;0.27;100.00
63927;BME280;50103;47.960;21.712;2023-02-03T17:29:44;100075.37;;;0.26;100.00
63927;BME280;50103;47.960;21.712;2023-02-03T17:32:09;100068.60;;;0.26;100.00
63927;BME280;50103;47.960;21.712;2023-02-03T17:34:42;100063.05;;;0.25;100.00
63927;BME280;50103;47.960;21.712;2023-02-03T17:37:12;100056.66;;;0.24;100.00
63927;BME280;50103;47.960;21.712;2023-02-03T17:39:39;100050.55;;;0.24;100.00
63927;BME280;50103;47.960;21.712;2023-02-03T17:42:05;100041.20;;;0.23;100.00
63927;BME280;50103;47.960;21.712;2023-02-03T17:44:33;100037.05;;;0.22;100.00
63927;BME280;50103;47.960;21.712;2023-02-03T17:47:00;100033.06;;;0.22;100.00
63927;BME280;50103;47.960;21.712;2023-02-03T17:49:29;100022.45;;;0.21;100.00
63927;BME280;50103;47.960;21.712;2023-02-03T17:51:55;100014.70;;;0.19;100.00
63927;BME280;50103;47.960;21.712;2023-02-03T17:54:21;100010.99;;;0.20;100.00
63927;BME280;50103;47.960;21.712;2023-02-03T17:56:47;100013.24;;;0.21;100.00
63927;BME280;50103;47.960;21.712;2023-02-03T17:59:14;100012.02;;;0.21;100.00
63927;BME280;50103;47.960;21.712;2023-02-03T18:01:41;100005.37;;;0.22;100.00
63927;BME280;50103;47.960;21.712;2023-02-03T18:04:07;100002.73;;;0.22;100.00
63927;BME280;50103;47.960;21.712;2023-02-03T18:06:33;100000.13;;;0.22;100.00
63927;BME280;50103;47.960;21.712;2023-02-03T18:09:01;99994.23;;;0.22;100.00
63927;BME280;50103;47.960;21.712;2023-02-03T18:11:29;99984.67;;;0.22;100.00
63927;BME280;50103;47.960;21.712;2023-02-03T18:13:56;99985.16;;;0.22;100.00
63927;BME280;50103;47.960;21.712;2023-02-03T18:16:24;99980.77;;;0.23;100.00
63927;BME280;50103;47.960;21.712;2023-02-03T18:18:52;99974.33;;;0.23;100.00
63927;BME280;50103;47.960;21.712;2023-02-03T18:21:19;99975.16;;;0.24;100.00
63927;BME280;50103;47.960;21.712;2023-02-03T18:23:45;99970.82;;;0.24;100.00
63927;BME280;50103;47.960;21.712;2023-02-03T18:26:12;99966.71;;;0.22;100.00
63927;BME280;50103;47.960;21.712;2023-02-03T18:28:39;99963.04;;;0.23;100.00
63927;BME280;50103;47.960;21.712;2023-02-03T18:31:11;99959.39;;;0.22;100.00
63927;BME280;50103;47.960;21.712;2023-02-03T18:33:38;99955.10;;;0.21;100.00
63927;BME280;50103;47.960;21.712;2023-02-03T18:36:06;99951.98;;;0.21;100.00
63927;BME280;50103;47.960;21.712;2023-02-03T18:38:33;99949.01;;;0.21;100.00
63927;BME280;50103;47.960;21.712;2023-02-03T18:41:15;99953.55;;;0.20;100.00
63927;BME280;50103;47.960;21.712;2023-02-03T18:43:41;99953.74;;;0.20;100.00
63927;BME280;50103;47.960;21.712;2023-02-03T18:46:08;99953.10;;;0.18;100.00
63927;BME280;50103;47.960;21.712;2023-02-03T18:48:34;99953.46;;;0.18;100.00
63927;BME280;50103;47.960;21.712;2023-02-03T18:51:01;99963.37;;;0.18;100.00
63927;BME280;50103;47.960;21.712;2023-02-03T18:53:28;99964.59;;;0.18;100.00
63927;BME280;50103;47.960;21.712;2023-02-03T18:55:54;99961.63;;;0.19;100.00
63927;BME280;50103;47.960;21.712;2023-02-03T18:58:20;99956.73;;;0.19;100.00
63927;BME280;50103;47.960;21.712;2023-02-03T19:00:47;99952.33;;;0.20;100.00
63927;BME280;50103;47.960;21.712;2023-02-03T19:03:12;99944.13;;;0.21;100.00
63927;BME280;50103;47.960;21.712;2023-02-03T19:05:39;99935.30;;;0.19;100.00
63927;BME280;50103;47.960;21.712;2023-02-03T19:08:06;99921.71;;;0.20;100.00
63927;BME280;50103;47.960;21.712;2023-02-03T19:10:31;99913.17;;;0.20;100.00
63927;BME280;50103;47.960;21.712;2023-02-03T19:12:58;99908.14;;;0.19;100.00
63927;BME280;50103;47.960;21.712;2023-02-03T19:15:24;99898.77;;;0.18;100.00
63927;BME280;50103;47.960;21.712;2023-02-03T19:17:50;99888.55;;;0.17;100.00
63927;BME280;50103;47.960;21.712;2023-02-03T19:20:16;99885.27;;;0.17;100.00
63927;BME280;50103;47.960;21.712;2023-02-03T19:22:41;99874.28;;;0.17;100.00
63927;BME280;50103;47.960;21.712;2023-02-03T19:25:07;99865.06;;;0.17;100.00
63927;BME280;50103;47.960;21.712;2023-02-03T19:27:33;99849.90;;;0.17;100.00
63927;BME280;50103;47.960;21.712;2023-02-03T19:29:59;99830.05;;;0.18;100.00
63927;BME280;50103;47.960;21.712;2023-02-03T19:32:25;99800.62;;;0.18;100.00
63927;BME280;50103;47.960;21.712;2023-02-03T19:34:51;99794.85;;;0.18;100.00
63927;BME280;50103;47.960;21.712;2023-02-03T19:37:18;99816.27;;;0.19;100.00
63927;BME280;50103;47.960;21.712;2023-02-03T19:39:44;99841.34;;;0.19;100.00
63927;BME280;50103;47.960;21.712;2023-02-03T19:42:15;99857.11;;;0.20;100.00
63927;BME280;50103;47.960;21.712;2023-02-03T19:44:40;99862.45;;;0.21;100.00
63927;BME280;50103;47.960;21.712;2023-02-03T19:47:07;99858.54;;;0.23;100.00
63927;BME280;50103;47.960;21.712;2023-02-03T19:49:32;99855.20;;;0.24;100.00
63927;BME280;50103;47.960;21.712;2023-02-03T19:51:58;99856.05;;;0.25;100.00
63927;BME280;50103;47.960;21.712;2023-02-03T19:54:24;99855.16;;;0.25;100.00
63927;BME280;50103;47.960;21.712;2023-02-03T19:56:50;99857.25;;;0.25;100.00
63927;BME280;50103;47.960;21.712;2023-02-03T19:59:15;99855.68;;;0.25;100.00
